Time;durP1;ratioP1;P1;durP2;ratioP2;P2;SDS_P1;SDS_P2;PMS_P1;PMS_P2;Temp;Humidity;BMP_temperature;BMP_pressure;BME280_temperature;BME280_humidity;BME280_pressure;Samples;Min_cycle;Max_cycle;Signal;HPM_P1;HPM_P2
2022/07/11 00:02:21;;;;;;;;;;;;;;;;;;4939787;29;8380;-87
2022/07/11 00:04:47;;;;;;;;;;;;;;;;;;4939488;29;8744;-88
2022/07/11 00:07:13;;;;;;;;;;;;;;;;;;4939569;29;8422;-86
2022/07/11 00:09:39;;;;;;;;;;;;;;;;;;4939397;29;8425;-88
2022/07/11 00:12:05;;;;;;;;;;;;;;;;;;4941000;28;8532;-87
2022/07/11 00:14:30;;;;;;;;;;;;;;;;;;4943226;28;7168;-87
2022/07/11 00:16:56;;;;;;;;;;;;;;;;;;4943279;28;7145;-86
2022/07/11 00:19:22;;;;;;;;;;;;;;;;;;4943344;28;7379;-88
2022/07/11 00:21:49;;;;;;;;;;;;;;;;;;4943097;28;8416;-88
2022/07/11 00:24:17;;;;;;;;;;;;;;;;;;4958918;28;7266;-87
2022/07/11 00:26:43;;;;;;;;;;;;;;;;;;4942951;28;8332;-87
2022/07/11 00:29:08;;;;;;;;;;;;;;;;;;4943260;28;8495;-86
2022/07/11 00:31:34;;;;;;;;;;;;;;;;;;4942788;28;7226;-86
2022/07/11 00:33:59;;;;;;;;;;;;;;;;;;4943016;28;8493;-85
2022/07/11 00:36:25;;;;;;;;;;;;;;;;;;4943129;28;8403;-86
2022/07/11 00:38:51;;;;;;;;;;;;;;;;;;4942685;28;8391;-87
2022/07/11 00:41:18;;;;;;;;;;;;;;;;;;4943099;28;7016;-86
2022/07/11 00:43:51;;;;;;;;;;;;;;;;;;4942992;28;8889;-87
2022/07/11 00:46:16;;;;;;;;;;;;;;;;;;4942727;28;8685;-86
2022/07/11 00:48:42;;;;;;;;;;;;;;;;;;4942902;28;7135;-86
2022/07/11 00:51:07;;;;;;;;;;;;;;;;;;4942829;28;9290;-86
2022/07/11 00:53:34;;;;;;;;;;;;;;;;;;4942672;28;7002;-87
2022/07/11 00:56:01;;;;;;;;;;;;;;;;;;4942748;28;8351;-86
2022/07/11 00:58:27;;;;;;;;;;;;;;;;;;4942860;28;8854;-86
2022/07/11 01:00:53;;;;;;;;;;;;;;;;;;4942246;28;7401;-87
2022/07/11 01:03:19;;;;;;;;;;;;;;;;;;4942479;28;7143;-87
2022/07/11 01:05:44;;;;;;;;;;;;;;;;;;4942840;28;7412;-87
2022/07/11 01:08:10;;;;;;;;;;;;;;;;;;4942234;28;8414;-87
2022/07/11 01:10:36;;;;;;;;;;;;;;;;;;4942559;28;8503;-86
2022/07/11 01:13:01;;;;;;;;;;;;;;;;;;4942907;28;8401;-86
2022/07/11 01:15:27;;;;;;;;;;;;;;;;;;4942721;28;8521;-86
2022/07/11 01:17:53;;;;;;;;;;;;;;;;;;4942403;28;8371;-87
2022/07/11 01:20:24;;;;;;;;;;;;;;;;;;4942546;28;7018;-86
2022/07/11 01:22:54;;;;;;;;;;;;;;;;;;4941737;28;8511;-86
2022/07/11 01:25:32;;;;;;;;;;;;;;;;;;4974087;28;7165;-88
2022/07/11 01:27:58;;;;;;;;;;;;;;;;;;4942815;28;9154;-85
2022/07/11 01:30:25;;;;;;;;;;;;;;;;;;4941804;28;7048;-87
2022/07/11 01:32:52;;;;;;;;;;;;;;;;;;4941734;28;7412;-86
2022/07/11 01:35:18;;;;;;;;;;;;;;;;;;4941993;28;8673;-87
2022/07/11 01:37:44;;;;;;;;;;;;;;;;;;4941808;28;7240;-86
2022/07/11 01:40:10;;;;;;;;;;;;;;;;;;4941950;28;8460;-86
2022/07/11 01:42:35;;;;;;;;;;;;;;;;;;4941865;28;8399;-85
2022/07/11 01:45:01;;;;;;;;;;;;;;;;;;4941735;28;8621;-86
2022/07/11 01:47:26;;;;;;;;;;;;;;;;;;4941538;28;7011;-86
2022/07/11 01:49:52;;;;;;;;;;;;;;;;;;4941867;28;7132;-87
2022/07/11 01:52:17;;;;;;;;;;;;;;;;;;4941290;28;8372;-87
2022/07/11 01:54:43;;;;;;;;;;;;;;;;;;4941471;28;8385;-87
2022/07/11 01:57:09;;;;;;;;;;;;;;;;;;4941539;28;8386;-87
2022/07/11 01:59:35;;;;;;;;;;;;;;;;;;4941569;28;7040;-86
2022/07/11 02:02:01;;;;;;;;;;;;;;;;;;4941290;28;8648;-86
2022/07/11 02:04:26;;;;;;;;;;;;;;;;;;4941670;28;8392;-85
2022/07/11 02:06:52;;;;;;;;;;;;;;;;;;4941276;28;8413;-86
2022/07/11 02:09:18;;;;;;;;;;;;;;;;;;4941053;28;7240;-86
2022/07/11 02:11:43;;;;;;;;;;;;;;;;;;4941248;28;6821;-86
2022/07/11 02:14:09;;;;;;;;;;;;;;;;;;4940978;28;8650;-87
2022/07/11 02:16:34;;;;;;;;;;;;;;;;;;4940911;28;8668;-86
2022/07/11 02:19:00;;;;;;;;;;;;;;;;;;4940992;28;8483;-85
2022/07/11 02:21:25;;;;;;;;;;;;;;;;;;4941199;28;8458;-86
2022/07/11 02:23:51;;;;;;;;;;;;;;;;;;4941103;28;8390;-87
2022/07/11 02:26:17;;;;;;;;;;;;;;;;;;4940754;28;8403;-88
2022/07/11 02:28:42;;;;;;;;;;;;;;;;;;4941330;28;8687;-87
2022/07/11 02:31:08;;;;;;;;;;;;;;;;;;4940685;28;7107;-86
2022/07/11 02:33:34;;;;;;;;;;;;;;;;;;4940782;28;7218;-87
2022/07/11 02:36:00;;;;;;;;;;;;;;;;;;4939972;28;8543;-86
2022/07/11 02:38:26;;;;;;;;;;;;;;;;;;4940465;28;8006;-87
2022/07/11 02:40:52;;;;;;;;;;;;;;;;;;4940442;28;7186;-88
2022/07/11 02:43:17;;;;;;;;;;;;;;;;;;4940484;28;7036;-87
2022/07/11 02:45:43;;;;;;;;;;;;;;;;;;4940635;28;8323;-87
2022/07/11 02:48:09;;;;;;;;;;;;;;;;;;4941322;28;7136;-86
2022/07/11 02:50:34;;;;;;;;;;;;;;;;;;4940394;28;8600;-87
2022/07/11 02:52:59;;;;;;;;;;;;;;;;;;4941372;28;8770;-86
2022/07/11 02:55:25;;;;;;;;;;;;;;;;;;4940826;28;7019;-86
2022/07/11 02:57:50;;;;;;;;;;;;;;;;;;4940426;28;7153;-86
2022/07/11 03:00:17;;;;;;;;;;;;;;;;;;4940267;28;8829;-86
2022/07/11 03:02:42;;;;;;;;;;;;;;;;;;4940364;28;7424;-86
2022/07/11 03:05:09;;;;;;;;;;;;;;;;;;4940192;28;7145;-87
2022/07/11 03:07:34;;;;;;;;;;;;;;;;;;4940296;28;8507;-86
2022/07/11 03:10:00;;;;;;;;;;;;;;;;;;4940092;28;7231;-86
2022/07/11 03:12:26;;;;;;;;;;;;;;;;;;4940156;28;6822;-86
2022/07/11 03:14:51;;;;;;;;;;;;;;;;;;4939921;28;8749;-87
2022/07/11 03:17:17;;;;;;;;;;;;;;;;;;4939917;28;7489;-87
2022/07/11 03:19:43;;;;;;;;;;;;;;;;;;4939940;28;8442;-86
2022/07/11 03:22:09;;;;;;;;;;;;;;;;;;4940324;28;8789;-86
2022/07/11 03:24:34;;;;;;;;;;;;;;;;;;4940211;28;8645;-87
2022/07/11 03:27:00;;;;;;;;;;;;;;;;;;4940467;28;7229;-86
2022/07/11 03:29:25;;;;;;;;;;;;;;;;;;4939838;28;7155;-85
2022/07/11 03:31:52;;;;;;;;;;;;;;;;;;4939836;28;8871;-86
2022/07/11 03:34:17;;;;;;;;;;;;;;;;;;4940095;28;7229;-86
2022/07/11 03:36:45;;;;;;;;;;;;;;;;;;4939677;28;7156;-86
2022/07/11 03:39:12;;;;;;;;;;;;;;;;;;4939650;28;8527;-86
2022/07/11 03:41:38;;;;;;;;;;;;;;;;;;4939727;28;7423;-86
2022/07/11 03:44:03;;;;;;;;;;;;;;;;;;4939604;28;7153;-87
2022/07/11 03:46:29;;;;;;;;;;;;;;;;;;4939473;28;7234;-87
2022/07/11 03:48:54;;;;;;;;;;;;;;;;;;4939962;28;8405;-87
2022/07/11 03:51:20;;;;;;;;;;;;;;;;;;4940001;29;7158;-87
2022/07/11 03:53:45;;;;;;;;;;;;;;;;;;4939924;29;7037;-86
2022/07/11 03:56:11;;;;;;;;;;;;;;;;;;4939619;29;8718;-88
2022/07/11 03:58:37;;;;;;;;;;;;;;;;;;4939362;29;7073;-87
2022/07/11 04:01:02;;;;;;;;;;;;;;;;;;4939858;29;7023;-87
2022/07/11 04:03:28;;;;;;;;;;;;;;;;;;4939430;29;8406;-86
2022/07/11 04:05:54;;;;;;;;;;;;;;;;;;4939642;29;8422;-89
2022/07/11 04:08:19;;;;;;;;;;;;;;;;;;4939610;29;8394;-86
2022/07/11 04:10:45;;;;;;;;;;;;;;;;;;4939669;29;8609;-86
2022/07/11 04:13:10;;;;;;;;;;;;;;;;;;4939617;29;7379;-86
2022/07/11 04:15:36;;;;;;;;;;;;;;;;;;4939568;29;8333;-85
2022/07/11 04:18:02;;;;;;;;;;;;;;;;;;4939336;29;8766;-86
2022/07/11 04:20:28;;;;;;;;;;;;;;;;;;4939071;29;7168;-86
2022/07/11 04:22:54;;;;;;;;;;;;;;;;;;4939400;29;8412;-86
2022/07/11 04:25:20;;;;;;;;;;;;;;;;;;4939373;29;8722;-87
2022/07/11 04:27:45;;;;;;;;;;;;;;;;;;4939418;29;8405;-86
2022/07/11 04:30:11;;;;;;;;;;;;;;;;;;4939290;29;7157;-86
2022/07/11 04:32:37;;;;;;;;;;;;;;;;;;4939150;29;7148;-86
2022/07/11 04:35:03;;;;;;;;;;;;;;;;;;4939480;29;8705;-87
2022/07/11 04:37:29;;;;;;;;;;;;;;;;;;4939060;29;7031;-85
2022/07/11 04:39:55;;;;;;;;;;;;;;;;;;4939513;29;7242;-85
2022/07/11 04:42:21;;;;;;;;;;;;;;;;;;4941309;29;8600;-85
2022/07/11 04:44:46;;;;;;;;;;;;;;;;;;4939122;29;8684;-86
2022/07/11 04:47:12;;;;;;;;;;;;;;;;;;4939450;29;7094;-86
2022/07/11 04:49:37;;;;;;;;;;;;;;;;;;4939420;29;8406;-86
2022/07/11 04:52:03;;;;;;;;;;;;;;;;;;4939390;29;8410;-87
2022/07/11 04:54:29;;;;;;;;;;;;;;;;;;4939293;29;8383;-87
2022/07/11 04:56:54;;;;;;;;;;;;;;;;;;4939652;28;7405;-86
2022/07/11 04:59:20;;;;;;;;;;;;;;;;;;4942000;28;8390;-87
2022/07/11 05:01:45;;;;;;;;;;;;;;;;;;4943048;28;8482;-86
2022/07/11 05:04:11;;;;;;;;;;;;;;;;;;4942578;28;8624;-87
2022/07/11 05:06:37;;;;;;;;;;;;;;;;;;4942942;28;8596;-86
2022/07/11 05:09:04;;;;;;;;;;;;;;;;;;4942868;28;7167;-86
2022/07/11 05:11:29;;;;;;;;;;;;;;;;;;4942913;28;7288;-86
2022/07/11 05:13:55;;;;;;;;;;;;;;;;;;4942350;28;8684;-87
2022/07/11 05:16:20;;;;;;;;;;;;;;;;;;4942731;28;8601;-86
2022/07/11 05:18:46;;;;;;;;;;;;;;;;;;4942386;28;7053;-86
2022/07/11 05:21:11;;;;;;;;;;;;;;;;;;4942409;28;8400;-87
2022/07/11 05:23:37;;;;;;;;;;;;;;;;;;4942517;28;7260;-87
2022/07/11 05:26:04;;;;;;;;;;;;;;;;;;4940822;28;8735;-86
2022/07/11 05:28:30;;;;;;;;;;;;;;;;;;4942278;28;8654;-86
2022/07/11 05:30:55;;;;;;;;;;;;;;;;;;4948937;28;8399;-86
2022/07/11 05:33:21;;;;;;;;;;;;;;;;;;4955399;28;8360;-88
2022/07/11 05:35:46;;;;;;;;;;;;;;;;;;4955324;28;8307;-86
2022/07/11 05:38:11;;;;;;;;;;;;;;;;;;4947891;28;8662;-86
2022/07/11 05:40:40;;;;;;;;;;;;;;;;;;4947250;28;8455;-89
2022/07/11 05:43:07;;;;;;;;;;;;;;;;;;4946736;28;8393;-87
2022/07/11 05:45:32;;;;;;;;;;;;;;;;;;4958262;28;7526;-87
2022/07/11 05:47:57;;;;;;;;;;;;;;;;;;4963956;28;9118;-88
2022/07/11 05:50:23;;;;;;;;;;;;;;;;;;4969391;28;8581;-87
2022/07/11 05:52:48;;;;;;;;;;;;;;;;;;4973196;28;8367;-87
2022/07/11 05:55:14;;;;;;;;;;;;;;;;;;4970803;28;8376;-85
2022/07/11 05:57:39;;;;;;;;;;;;;;;;;;4975141;28;8389;-86
2022/07/11 06:00:05;;;;;;;;;;;;;;;;;;4967438;28;7130;-85
2022/07/11 06:02:30;;;;;;;;;;;;;;;;;;4971477;28;8340;-83
2022/07/11 06:04:56;;;;;;;;;;;;;;;;;;4974547;28;9381;-84
2022/07/11 06:10:15;;;;;;;;;;;;;;;;;;4960215;28;7027;-83
2022/07/11 06:12:41;;;;;;;;;;;;;;;;;;4975468;28;8641;-85
2022/07/11 06:15:07;;;;;;;;;;;;;;;;;;4975744;28;7186;-85
2022/07/11 06:17:33;;;;;;;;;;;;;;;;;;4971954;28;8801;-85
2022/07/11 06:19:58;;;;;;;;;;;;;;;;;;4974704;28;8680;-85
2022/07/11 06:22:23;;;;;;;;;;;;;;;;;;4975700;28;8500;-86
2022/07/11 06:24:49;;;;;;;;;;;;;;;;;;4974985;28;7107;-86
2022/07/11 06:27:14;;;;;;;;;;;;;;;;;;4974902;28;7152;-86
2022/07/11 06:29:40;;;;;;;;;;;;;;;;;;4974878;28;8721;-85
2022/07/11 06:32:06;;;;;;;;;;;;;;;;;;4975698;28;7410;-87
2022/07/11 06:34:31;;;;;;;;;;;;;;;;;;4986079;28;7260;-80
2022/07/11 06:36:57;;;;;;;;;;;;;;;;;;4985752;28;7123;-81
2022/07/11 06:39:22;;;;;;;;;;;;;;;;;;4977090;28;8456;-81
2022/07/11 06:41:49;;;;;;;;;;;;;;;;;;4975898;28;6827;-86
2022/07/11 06:44:14;;;;;;;;;;;;;;;;;;4961630;28;8340;-85
2022/07/11 06:46:40;;;;;;;;;;;;;;;;;;4977670;28;8449;-85
2022/07/11 06:49:06;;;;;;;;;;;;;;;;;;4977781;28;8456;-84
2022/07/11 06:51:32;;;;;;;;;;;;;;;;;;4973827;28;8509;-86
2022/07/11 06:53:57;;;;;;;;;;;;;;;;;;4957105;28;8445;-86
2022/07/11 06:56:23;;;;;;;;;;;;;;;;;;4954743;28;8532;-83
2022/07/11 06:58:48;;;;;;;;;;;;;;;;;;4955658;28;8744;-85
2022/07/11 07:01:13;;;;;;;;;;;;;;;;;;4955686;28;8893;-86
2022/07/11 07:03:39;;;;;;;;;;;;;;;;;;4956151;28;7163;-85
2022/07/11 07:06:05;;;;;;;;;;;;;;;;;;4954737;28;7355;-85
2022/07/11 07:08:31;;;;;;;;;;;;;;;;;;4955833;28;7062;-88
2022/07/11 07:10:57;;;;;;;;;;;;;;;;;;4955699;28;7030;-86
2022/07/11 07:13:25;;;;;;;;;;;;;;;;;;4955109;28;7136;-86
2022/07/11 07:15:51;;;;;;;;;;;;;;;;;;4955661;28;8344;-81
2022/07/11 07:18:17;;;;;;;;;;;;;;;;;;4955273;28;8901;-85
2022/07/11 07:20:42;;;;;;;;;;;;;;;;;;4954626;28;7153;-85
2022/07/11 07:23:08;;;;;;;;;;;;;;;;;;4955227;28;8357;-85
2022/07/11 07:25:34;;;;;;;;;;;;;;;;;;4955350;28;7026;-86
2022/07/11 07:27:59;;;;;;;;;;;;;;;;;;4953896;28;7335;-85
2022/07/11 07:30:25;;;;;;;;;;;;;;;;;;4954594;28;8715;-85
2022/07/11 07:32:50;;;;;;;;;;;;;;;;;;4955574;28;7163;-84
2022/07/11 07:35:16;;;;;;;;;;;;;;;;;;4954368;28;8300;-86
2022/07/11 07:37:41;;;;;;;;;;;;;;;;;;4953532;28;9190;-88
2022/07/11 07:40:07;;;;;;;;;;;;;;;;;;4954268;28;7250;-85
2022/07/11 07:42:33;;;;;;;;;;;;;;;;;;4939130;28;8800;-85
2022/07/11 07:44:58;;;;;;;;;;;;;;;;;;4955339;28;8285;-86
2022/07/11 07:47:24;;;;;;;;;;;;;;;;;;4954965;28;8956;-86
2022/07/11 07:49:49;;;;;;;;;;;;;;;;;;4954424;28;6828;-84
2022/07/11 07:52:15;;;;;;;;;;;;;;;;;;4955196;28;7036;-86
2022/07/11 07:54:41;;;;;;;;;;;;;;;;;;4954287;28;8433;-83
2022/07/11 07:57:06;;;;;;;;;;;;;;;;;;4953512;28;7727;-85
2022/07/11 07:59:44;;;;;;;;;;;;;;;;;;4955399;29;8762;-84
2022/07/11 08:02:09;;;;;;;;;;;;;;;;;;4938984;29;8304;-87
2022/07/11 08:04:35;;;;;;;;;;;;;;;;;;4953618;29;8327;-87
2022/07/11 08:07:00;;;;;;;;;;;;;;;;;;4954532;29;8497;-86
2022/07/11 08:09:26;;;;;;;;;;;;;;;;;;4953741;29;7109;-86
2022/07/11 08:11:52;;;;;;;;;;;;;;;;;;4954773;29;7495;-87
2022/07/11 08:14:17;;;;;;;;;;;;;;;;;;4954483;29;8418;-86
2022/07/11 08:16:43;;;;;;;;;;;;;;;;;;4954608;29;7403;-86
2022/07/11 08:19:09;;;;;;;;;;;;;;;;;;4953615;29;7000;-86
2022/07/11 08:21:35;;;;;;;;;;;;;;;;;;4955161;29;7255;-85
2022/07/11 08:24:01;;;;;;;;;;;;;;;;;;4955253;29;8315;-86
2022/07/11 08:26:27;;;;;;;;;;;;;;;;;;4954426;29;8770;-87
2022/07/11 08:28:52;;;;;;;;;;;;;;;;;;4954364;29;7244;-86
2022/07/11 08:31:18;;;;;;;;;;;;;;;;;;4955016;29;8402;-86
2022/07/11 08:33:43;;;;;;;;;;;;;;;;;;4956228;28;8422;-83
2022/07/11 08:36:10;;;;;;;;;;;;;;;;;;4953414;28;7115;-86
2022/07/11 08:38:36;;;;;;;;;;;;;;;;;;4957507;28;7353;-86
2022/07/11 08:41:03;;;;;;;;;;;;;;;;;;4957663;28;7425;-86
2022/07/11 08:43:30;;;;;;;;;;;;;;;;;;4959607;28;8478;-84
2022/07/11 08:45:56;;;;;;;;;;;;;;;;;;4957294;28;7188;-86
2022/07/11 08:48:23;;;;;;;;;;;;;;;;;;4956984;28;7193;-86
2022/07/11 08:50:52;;;;;;;;;;;;;;;;;;4957390;28;8522;-86
2022/07/11 08:53:17;;;;;;;;;;;;;;;;;;4957179;28;7237;-87
2022/07/11 08:55:43;;;;;;;;;;;;;;;;;;4957645;28;7039;-86
2022/07/11 08:58:09;;;;;;;;;;;;;;;;;;4957684;28;8422;-86
2022/07/11 09:00:35;;;;;;;;;;;;;;;;;;4963244;28;7157;-85
2022/07/11 09:03:02;;;;;;;;;;;;;;;;;;4977165;28;8647;-87
2022/07/11 09:05:29;;;;;;;;;;;;;;;;;;4977875;28;7057;-88
2022/07/11 09:07:55;;;;;;;;;;;;;;;;;;4977663;28;7037;-88
2022/07/11 09:10:20;;;;;;;;;;;;;;;;;;4976382;28;8343;-82
2022/07/11 09:13:04;;;;;;;;;;;;;;;;;;4977343;28;7037;-87
2022/07/11 09:15:34;;;;;;;;;;;;;;;;;;4967653;28;8371;-81
2022/07/11 09:18:00;;;;;;;;;;;;;;;;;;4988417;28;8103;-85
2022/07/11 09:25:19;;;;;;;;;;;;;;;;;;4981124;28;7030;-88
2022/07/11 09:26:05;;;;;;;;;;;;;;;;;;4979097;28;7023;-85
2022/07/11 09:28:31;;;;;;;;;;;;;;;;;;4976601;28;7389;-86
2022/07/11 09:30:56;;;;;;;;;;;;;;;;;;4975908;28;8487;-87
2022/07/11 09:33:22;;;;;;;;;;;;;;;;;;4976891;28;7142;-86
2022/07/11 09:35:47;;;;;;;;;;;;;;;;;;4975844;28;7021;-86
2022/07/11 09:38:16;;;;;;;;;;;;;;;;;;4975260;28;8416;-86
2022/07/11 09:40:47;;;;;;;;;;;;;;;;;;4976208;28;7264;-87
2022/07/11 09:43:12;;;;;;;;;;;;;;;;;;4975859;28;8653;-87
2022/07/11 09:45:39;;;;;;;;;;;;;;;;;;4975399;28;8438;-84
2022/07/11 09:48:10;;;;;;;;;;;;;;;;;;4959401;28;7465;-86
2022/07/11 09:50:35;;;;;;;;;;;;;;;;;;4958991;28;7102;-84
2022/07/11 09:53:06;;;;;;;;;;;;;;;;;;4960213;28;7184;-85
2022/07/11 09:55:36;;;;;;;;;;;;;;;;;;4959127;28;7240;-85
2022/07/11 09:58:05;;;;;;;;;;;;;;;;;;4959243;28;7420;-86
2022/07/11 10:00:32;;;;;;;;;;;;;;;;;;4959989;28;7103;-87
2022/07/11 10:02:58;;;;;;;;;;;;;;;;;;4963602;28;7027;-87
2022/07/11 10:05:24;;;;;;;;;;;;;;;;;;4975059;28;7056;-87
2022/07/11 10:07:50;;;;;;;;;;;;;;;;;;4975615;28;8344;-86
2022/07/11 10:10:16;;;;;;;;;;;;;;;;;;4975657;28;7026;-86
2022/07/11 10:12:44;;;;;;;;;;;;;;;;;;4973827;28;7073;-87
2022/07/11 10:15:11;;;;;;;;;;;;;;;;;;4963975;28;7297;-86
2022/07/11 10:17:44;;;;;;;;;;;;;;;;;;4974949;28;8513;-85
2022/07/11 10:20:10;;;;;;;;;;;;;;;;;;4975378;28;7429;-87
2022/07/11 10:22:42;;;;;;;;;;;;;;;;;;4976425;28;7067;-89
2022/07/11 10:25:22;;;;;;;;;;;;;;;;;;4975185;28;8304;-85
2022/07/11 10:27:51;;;;;;;;;;;;;;;;;;4977681;28;8446;-87
2022/07/11 10:30:36;;;;;;;;;;;;;;;;;;4975614;28;8430;-87
2022/07/11 10:33:06;;;;;;;;;;;;;;;;;;4962048;28;7200;-86
2022/07/11 10:35:31;;;;;;;;;;;;;;;;;;4976376;28;7131;-86
2022/07/11 10:37:58;;;;;;;;;;;;;;;;;;4959498;28;9030;-86
2022/07/11 10:40:48;;;;;;;;;;;;;;;;;;4974392;28;7205;-86
2022/07/11 10:43:15;;;;;;;;;;;;;;;;;;4958743;28;7361;-87
2022/07/11 10:45:50;;;;;;;;;;;;;;;;;;4957202;28;7049;-85
2022/07/11 10:48:16;;;;;;;;;;;;;;;;;;4975009;28;7149;-84
2022/07/11 10:50:43;;;;;;;;;;;;;;;;;;4973728;28;8450;-86
2022/07/11 10:53:10;;;;;;;;;;;;;;;;;;4975393;28;7128;-84
2022/07/11 10:56:01;;;;;;;;;;;;;;;;;;4974326;28;6855;-86
2022/07/11 10:58:31;;;;;;;;;;;;;;;;;;4974485;28;9198;-86
2022/07/11 11:01:10;;;;;;;;;;;;;;;;;;4973969;28;7358;-86
2022/07/11 11:03:36;;;;;;;;;;;;;;;;;;4973883;28;7080;-85
2022/07/11 11:06:03;;;;;;;;;;;;;;;;;;4973291;28;8580;-87
2022/07/11 11:08:31;;;;;;;;;;;;;;;;;;4972757;28;8754;-83
2022/07/11 11:10:57;;;;;;;;;;;;;;;;;;4972324;28;8469;-85
2022/07/11 11:13:23;;;;;;;;;;;;;;;;;;4972328;28;7045;-83
2022/07/11 11:15:52;;;;;;;;;;;;;;;;;;4972422;28;8387;-83
2022/07/11 11:18:23;;;;;;;;;;;;;;;;;;4972243;28;7238;-85
2022/07/11 11:21:07;;;;;;;;;;;;;;;;;;4956401;28;7187;-85
2022/07/11 11:23:46;;;;;;;;;;;;;;;;;;4955839;28;7163;-84
2022/07/11 11:26:11;;;;;;;;;;;;;;;;;;4972250;28;8505;-86
2022/07/11 11:28:38;;;;;;;;;;;;;;;;;;4958886;28;8911;-83
2022/07/11 11:31:07;;;;;;;;;;;;;;;;;;4974944;28;8411;-87
2022/07/11 11:33:34;;;;;;;;;;;;;;;;;;4958491;28;8708;-86
2022/07/11 11:36:00;;;;;;;;;;;;;;;;;;4974203;28;7164;-86
2022/07/11 11:38:27;;;;;;;;;;;;;;;;;;4974447;28;9420;-86
2022/07/11 11:40:52;;;;;;;;;;;;;;;;;;4973708;28;7206;-83
2022/07/11 11:43:19;;;;;;;;;;;;;;;;;;4970571;28;8426;-85
2022/07/11 11:45:48;;;;;;;;;;;;;;;;;;4974036;28;7182;-84
2022/07/11 11:48:30;;;;;;;;;;;;;;;;;;4970944;28;7426;-85
2022/07/11 11:51:03;;;;;;;;;;;;;;;;;;4971189;28;7128;-84
2022/07/11 11:53:34;;;;;;;;;;;;;;;;;;4970563;28;8503;-85
2022/07/11 11:56:00;;;;;;;;;;;;;;;;;;4971999;28;9122;-81
2022/07/11 11:58:26;;;;;;;;;;;;;;;;;;4972101;28;8431;-87
2022/07/11 12:00:55;;;;;;;;;;;;;;;;;;4971351;28;7124;-87
2022/07/11 12:03:21;;;;;;;;;;;;;;;;;;4972119;28;8359;-83
2022/07/11 12:05:56;;;;;;;;;;;;;;;;;;4971850;28;7039;-84
2022/07/11 12:08:28;;;;;;;;;;;;;;;;;;4973647;28;8826;-84
2022/07/11 12:10:54;;;;;;;;;;;;;;;;;;4975586;28;7065;-83
2022/07/11 12:13:20;;;;;;;;;;;;;;;;;;4977400;28;8813;-83
2022/07/11 12:18:29;;;;;;;;;;;;;;;;;;4977138;28;7039;-86
2022/07/11 12:20:56;;;;;;;;;;;;;;;;;;4976215;28;8403;-87
2022/07/11 12:23:22;;;;;;;;;;;;;;;;;;4975856;28;8422;-86
2022/07/11 12:25:52;;;;;;;;;;;;;;;;;;4974732;28;8387;-84
2022/07/11 12:28:18;;;;;;;;;;;;;;;;;;4959625;28;7052;-85
2022/07/11 12:30:43;;;;;;;;;;;;;;;;;;4959414;28;8473;-84
2022/07/11 12:33:10;;;;;;;;;;;;;;;;;;4959918;28;7166;-84
2022/07/11 12:35:36;;;;;;;;;;;;;;;;;;4959618;28;8479;-87
2022/07/11 12:38:02;;;;;;;;;;;;;;;;;;4959235;28;7160;-85
2022/07/11 12:40:28;;;;;;;;;;;;;;;;;;4959291;28;7768;-83
2022/07/11 12:42:53;;;;;;;;;;;;;;;;;;4959396;28;8583;-84
2022/07/11 12:45:19;;;;;;;;;;;;;;;;;;4959249;28;7015;-85
2022/07/11 12:47:46;;;;;;;;;;;;;;;;;;4975515;28;8372;-84
2022/07/11 12:50:28;;;;;;;;;;;;;;;;;;4975402;28;7242;-85
2022/07/11 12:52:58;;;;;;;;;;;;;;;;;;4974909;28;7209;-86
2022/07/11 12:55:28;;;;;;;;;;;;;;;;;;4974839;28;9131;-87
2022/07/11 12:58:01;;;;;;;;;;;;;;;;;;4974953;28;8822;-83
2022/07/11 13:00:26;;;;;;;;;;;;;;;;;;4974582;28;7223;-86
2022/07/11 13:02:52;;;;;;;;;;;;;;;;;;4974714;28;8414;-84
2022/07/11 13:05:18;;;;;;;;;;;;;;;;;;4975512;28;8463;-84
2022/07/11 13:10:50;;;;;;;;;;;;;;;;;;4976116;28;6986;-84
2022/07/11 13:13:17;;;;;;;;;;;;;;;;;;4976736;28;7230;-86
2022/07/11 13:15:43;;;;;;;;;;;;;;;;;;4974693;28;8438;-85
2022/07/11 13:18:09;;;;;;;;;;;;;;;;;;4974717;28;7166;-86
2022/07/11 13:20:35;;;;;;;;;;;;;;;;;;4974590;28;8466;-85
2022/07/11 13:23:00;;;;;;;;;;;;;;;;;;4974657;28;8971;-84
2022/07/11 13:25:27;;;;;;;;;;;;;;;;;;4974415;28;8420;-86
2022/07/11 13:27:53;;;;;;;;;;;;;;;;;;4974695;28;8420;-86
2022/07/11 13:30:20;;;;;;;;;;;;;;;;;;4974633;28;8574;-84
2022/07/11 13:32:47;;;;;;;;;;;;;;;;;;4974333;28;8590;-84
2022/07/11 13:35:14;;;;;;;;;;;;;;;;;;4974751;28;7165;-80
2022/07/11 13:37:40;;;;;;;;;;;;;;;;;;4974205;28;7066;-83
2022/07/11 13:40:11;;;;;;;;;;;;;;;;;;4974066;28;7148;-87
2022/07/11 13:42:39;;;;;;;;;;;;;;;;;;4975121;28;8458;-87
2022/07/11 13:45:05;;;;;;;;;;;;;;;;;;4973901;28;8442;-85
2022/07/11 13:47:32;;;;;;;;;;;;;;;;;;4937907;28;8622;-85
2022/07/11 13:49:58;;;;;;;;;;;;;;;;;;4941579;28;8755;-84
2022/07/11 13:52:23;;;;;;;;;;;;;;;;;;4953869;28;7098;-84
2022/07/11 13:54:49;;;;;;;;;;;;;;;;;;4955022;28;8577;-86
2022/07/11 13:57:15;;;;;;;;;;;;;;;;;;4958528;28;8406;-86
2022/07/11 13:59:40;;;;;;;;;;;;;;;;;;4955896;28;7156;-85
2022/07/11 14:02:06;;;;;;;;;;;;;;;;;;4956727;28;7273;-86
2022/07/11 14:04:32;;;;;;;;;;;;;;;;;;4955881;28;8310;-85
2022/07/11 14:06:58;;;;;;;;;;;;;;;;;;4939245;28;8712;-86
2022/07/11 14:09:23;;;;;;;;;;;;;;;;;;4953885;28;8440;-87
2022/07/11 14:11:49;;;;;;;;;;;;;;;;;;4954904;28;8418;-86
2022/07/11 14:14:16;;;;;;;;;;;;;;;;;;4954330;28;8396;-87
2022/07/11 14:16:41;;;;;;;;;;;;;;;;;;4954840;28;7183;-83
2022/07/11 14:19:09;;;;;;;;;;;;;;;;;;4954248;28;7174;-85
2022/07/11 14:21:36;;;;;;;;;;;;;;;;;;4954242;28;7175;-84
2022/07/11 14:24:02;;;;;;;;;;;;;;;;;;4954061;28;8460;-84
2022/07/11 14:26:28;;;;;;;;;;;;;;;;;;4954564;28;8455;-83
2022/07/11 14:28:53;;;;;;;;;;;;;;;;;;4954242;28;7027;-85
2022/07/11 14:31:19;;;;;;;;;;;;;;;;;;4937324;28;7031;-85
2022/07/11 14:33:45;;;;;;;;;;;;;;;;;;4954061;28;7047;-83
2022/07/11 14:36:10;;;;;;;;;;;;;;;;;;4954073;28;8851;-86
2022/07/11 14:38:36;;;;;;;;;;;;;;;;;;4954044;28;7136;-84
2022/07/11 14:41:02;;;;;;;;;;;;;;;;;;4953275;28;8401;-86
2022/07/11 14:43:28;;;;;;;;;;;;;;;;;;4953699;28;7229;-86
2022/07/11 14:45:54;;;;;;;;;;;;;;;;;;4938137;28;7021;-86
2022/07/11 14:48:19;;;;;;;;;;;;;;;;;;4926653;29;19966;-84
2022/07/11 14:50:45;;;;;;;;;;;;;;;;;;4918205;29;7012;-86
2022/07/11 14:53:10;;;;;;;;;;;;;;;;;;4919256;29;7210;-84
2022/07/11 14:55:36;;;;;;;;;;;;;;;;;;4934342;29;8544;-86
2022/07/11 14:58:01;;;;;;;;;;;;;;;;;;4934135;29;8430;-85
2022/07/11 15:00:27;;;;;;;;;;;;;;;;;;4918111;29;8408;-85
2022/07/11 15:05:36;;;;;;;;;;;;;;;;;;4935303;29;7147;-84
2022/07/11 15:13:30;;;;;;;;;;;;;;;;;;4930924;28;7611;-83
2022/07/11 15:15:55;;;;;;;;;;;;;;;;;;4916189;29;8732;-81
2022/07/11 15:18:21;;;;;;;;;;;;;;;;;;4936649;28;7262;-83
2022/07/11 15:20:47;;;;;;;;;;;;;;;;;;4918491;29;8434;-84
2022/07/11 15:23:12;;;;;;;;;;;;;;;;;;4917653;29;7036;-82
2022/07/11 15:25:38;;;;;;;;;;;;;;;;;;4918024;29;7101;-84
2022/07/11 15:28:04;;;;;;;;;;;;;;;;;;4917610;29;8400;-86
2022/07/11 15:30:31;;;;;;;;;;;;;;;;;;4934214;29;8358;-87
2022/07/11 15:32:57;;;;;;;;;;;;;;;;;;4933704;29;7045;-79
2022/07/11 15:35:22;;;;;;;;;;;;;;;;;;4918816;28;8769;-84
2022/07/11 15:37:48;;;;;;;;;;;;;;;;;;4937627;28;8434;-80
2022/07/11 15:40:13;;;;;;;;;;;;;;;;;;4932809;29;8510;-85
2022/07/11 15:42:39;;;;;;;;;;;;;;;;;;4932228;29;8449;-82
2022/07/11 15:45:07;;;;;;;;;;;;;;;;;;4936399;28;7192;-83
2022/07/11 15:47:34;;;;;;;;;;;;;;;;;;4934242;28;7199;-84
2022/07/11 15:50:00;;;;;;;;;;;;;;;;;;4946641;28;8374;-83
2022/07/11 15:52:25;;;;;;;;;;;;;;;;;;4937452;28;7409;-85
2022/07/11 15:54:51;;;;;;;;;;;;;;;;;;4941272;28;8741;-84
2022/07/11 15:57:17;;;;;;;;;;;;;;;;;;4954529;28;7272;-84
2022/07/11 15:59:46;;;;;;;;;;;;;;;;;;4936765;29;8312;-85
2022/07/11 16:02:12;;;;;;;;;;;;;;;;;;4935550;29;8371;-83
2022/07/11 16:04:41;;;;;;;;;;;;;;;;;;4955370;29;8520;-85
2022/07/11 16:07:06;;;;;;;;;;;;;;;;;;4951572;29;7038;-86
2022/07/11 16:09:32;;;;;;;;;;;;;;;;;;4957040;29;7144;-87
2022/07/11 16:12:01;;;;;;;;;;;;;;;;;;4957000;29;8398;-87
2022/07/11 16:14:26;;;;;;;;;;;;;;;;;;4939048;29;7058;-88
2022/07/11 16:16:52;;;;;;;;;;;;;;;;;;4939839;29;8706;-87
2022/07/11 16:19:18;;;;;;;;;;;;;;;;;;4941514;29;8737;-88
2022/07/11 16:21:50;;;;;;;;;;;;;;;;;;4942955;29;8470;-89
2022/07/11 16:24:15;;;;;;;;;;;;;;;;;;4958306;29;7236;-88
2022/07/11 16:26:41;;;;;;;;;;;;;;;;;;4939664;29;8434;-87
2022/07/11 16:29:06;;;;;;;;;;;;;;;;;;4939525;29;8644;-85
2022/07/11 16:31:33;;;;;;;;;;;;;;;;;;4939264;29;8513;-88
2022/07/11 16:33:58;;;;;;;;;;;;;;;;;;4955590;29;7184;-88
2022/07/11 16:36:25;;;;;;;;;;;;;;;;;;4940376;29;8522;-87
2022/07/11 16:44:21;;;;;;;;;;;;;;;;;;4956077;29;6815;-88
2022/07/11 16:46:46;;;;;;;;;;;;;;;;;;4923826;29;8764;-86
2022/07/11 16:49:12;;;;;;;;;;;;;;;;;;4918763;29;7138;-88
2022/07/11 16:51:38;;;;;;;;;;;;;;;;;;4935377;29;7340;-87
2022/07/11 16:54:04;;;;;;;;;;;;;;;;;;4935438;29;8556;-87
2022/07/11 16:56:30;;;;;;;;;;;;;;;;;;4938119;29;8417;-89
2022/07/11 16:58:55;;;;;;;;;;;;;;;;;;4923349;29;8879;-86
2022/07/11 17:01:21;;;;;;;;;;;;;;;;;;4937784;29;8498;-89
2022/07/11 17:03:46;;;;;;;;;;;;;;;;;;4937864;29;8296;-87
2022/07/11 17:06:12;;;;;;;;;;;;;;;;;;4938726;29;8833;-87
2022/07/11 17:08:43;;;;;;;;;;;;;;;;;;4937630;29;7167;-88
2022/07/11 17:11:09;;;;;;;;;;;;;;;;;;4935906;29;8416;-85
2022/07/11 17:13:35;;;;;;;;;;;;;;;;;;4937673;29;6987;-84
2022/07/11 17:16:01;;;;;;;;;;;;;;;;;;4937827;29;7423;-86
2022/07/11 17:18:27;;;;;;;;;;;;;;;;;;4937633;29;8709;-84
2022/07/11 17:20:53;;;;;;;;;;;;;;;;;;4937727;29;8727;-83
2022/07/11 17:23:19;;;;;;;;;;;;;;;;;;4937135;29;8422;-85
2022/07/11 17:25:45;;;;;;;;;;;;;;;;;;4937164;29;8580;-88